This is the latest recevied weather packets stored in our database for station/object SV2BZQ-2. If no packets are shown the sender has not sent any weather packets the latest 10 day(s).
| Time | Temp. | Humidity | Pressure | Rain* | Wind** | Luminosity | Snow |
|---|---|---|---|---|---|---|---|
| 1777005874 | 6.67° C | 92% | 1013.3 hPa | 0 mm | - | 46 W/m² | - |
| 1777005198 | 6.11° C | 92% | 1013.3 hPa | 0 mm | - | 35 W/m² | - |
| 1777004694 | 6.11° C | 92% | 1013.2 hPa | 0 mm | - | 19 W/m² | - |
| 1777004246 | 6.11° C | 92% | 1013.2 hPa | 0 mm | - | 11 W/m² | - |
| 1776999353 | 6.67° C | 91% | 1013.1 hPa | 0 mm | - | 0 W/m² | - |
| 1776995279 | 7.78° C | 90% | 1012.8 hPa | 0 mm | - | 0 W/m² | - |
| 1776994970 | 7.78° C | 90% | 1012.8 hPa | 0 mm | - | 0 W/m² | - |
| 1776994671 | 7.78° C | 90% | 1012.9 hPa | 0 mm | - | 0 W/m² | - |
| 1776991904 | 18.33° C | 64% | 1011.5 hPa | 0 mm | - | 330 W/m² | - |
| 1776991046 | 8.33° C | 88% | 1013 hPa | 0 mm | - | 0 W/m² | - |
| 1776990189 | 8.89° C | 87% | 1013.1 hPa | 0 mm | - | 0 W/m² | - |
| 1776988753 | 11.67° C | 80% | 1013.3 hPa | 0 mm | - | 0 W/m² | - |
| 1776987772 | 9.44° C | 83% | 1013.2 hPa | 0 mm | - | 0 W/m² | - |
| 1776986096 | 12.78° C | 78% | 1013.1 hPa | 0 mm | - | 0 W/m² | - |
| 1776985906 | 13.33° C | 77% | 1012.9 hPa | 0 mm | - | 0 W/m² | - |
| 1776984215 | 15.56° C | 71% | 1011.7 hPa | 0 mm | - | 0 W/m² | - |
| 1776983025 | 11.67° C | 80% | 1013.4 hPa | 0 mm | - | 0 W/m² | - |
| 1776982800 | 11.67° C | 80% | 1013.4 hPa | 0 mm | - | 0 W/m² | - |
| 1776981374 | 11.67° C | 79% | 1013.3 hPa | 0 mm | - | 0 W/m² | - |
| 1776976639 | 12.78° C | 78% | 1013 hPa | 0 mm | - | 0 W/m² | - |
| 1776975758 | 12.78° C | 78% | 1013 hPa | 0 mm | - | 0 W/m² | - |
| 1776975190 | 12.78° C | 78% | 1013 hPa | 0 mm | - | 0 W/m² | - |
| 1776974510 | 12.78° C | 78% | 1012.9 hPa | 0 mm | - | 0 W/m² | - |
| 1776971739 | 13.33° C | 77% | 1012.8 hPa | 0 mm | - | 0 W/m² | - |
| 1776970508 | 13.89° C | 77% | 1012.6 hPa | 0 mm | - | 0 W/m² | - |
* Rain latest hour (hover to see other rain measurements)
** Current wind speed in m/s (hover to see current wind gust speed)